sensor_id;sensor_type;location;lat;lon;timestamp;P1;durP1;ratioP1;P2;durP2;ratioP2
44564;SDS011;30275;51.822;-0.326;2023-05-10T00:01:20;0.10;;;0.10;;
44564;SDS011;30275;51.822;-0.326;2023-05-10T00:03:46;0.90;;;0.90;;
44564;SDS011;30275;51.822;-0.326;2023-05-10T00:06:11;0.10;;;0.10;;
44564;SDS011;30275;51.822;-0.326;2023-05-10T00:08:37;0.10;;;0.10;;
44564;SDS011;30275;51.822;-0.326;2023-05-10T00:11:03;0.10;;;0.10;;
44564;SDS011;30275;51.822;-0.326;2023-05-10T00:13:28;0.20;;;0.20;;
44564;SDS011;30275;51.822;-0.326;2023-05-10T00:15:54;0.65;;;0.65;;
44564;SDS011;30275;51.822;-0.326;2023-05-10T00:18:20;0.40;;;0.40;;
44564;SDS011;30275;51.822;-0.326;2023-05-10T00:20:45;0.55;;;0.55;;
44564;SDS011;30275;51.822;-0.326;2023-05-10T00:23:11;0.10;;;0.10;;
44564;SDS011;30275;51.822;-0.326;2023-05-10T00:25:37;0.20;;;0.20;;
44564;SDS011;30275;51.822;-0.326;2023-05-10T00:28:02;1.48;;;1.40;;
44564;SDS011;30275;51.822;-0.326;2023-05-10T00:30:28;1.90;;;1.58;;
44564;SDS011;30275;51.822;-0.326;2023-05-10T00:32:53;0.10;;;0.10;;
44564;SDS011;30275;51.822;-0.326;2023-05-10T00:35:19;0.20;;;0.20;;
44564;SDS011;30275;51.822;-0.326;2023-05-10T00:37:46;0.40;;;0.40;;
44564;SDS011;30275;51.822;-0.326;2023-05-10T00:40:12;0.20;;;0.20;;
44564;SDS011;30275;51.822;-0.326;2023-05-10T00:42:38;0.50;;;0.50;;
44564;SDS011;30275;51.822;-0.326;2023-05-10T00:45:03;0.20;;;0.20;;
44564;SDS011;30275;51.822;-0.326;2023-05-10T00:47:29;0.45;;;0.45;;
44564;SDS011;30275;51.822;-0.326;2023-05-10T00:49:56;0.10;;;0.10;;
44564;SDS011;30275;51.822;-0.326;2023-05-10T00:52:22;0.20;;;0.20;;
44564;SDS011;30275;51.822;-0.326;2023-05-10T00:54:49;0.10;;;0.10;;
44564;SDS011;30275;51.822;-0.326;2023-05-10T00:57:16;0.10;;;0.10;;
44564;SDS011;30275;51.822;-0.326;2023-05-10T00:59:42;0.30;;;0.30;;
44564;SDS011;30275;51.822;-0.326;2023-05-10T01:02:07;3.08;;;2.90;;
44564;SDS011;30275;51.822;-0.326;2023-05-10T01:04:33;1.23;;;1.17;;
44564;SDS011;30275;51.822;-0.326;2023-05-10T01:07:00;0.30;;;0.30;;
44564;SDS011;30275;51.822;-0.326;2023-05-10T01:09:26;0.30;;;0.30;;
44564;SDS011;30275;51.822;-0.326;2023-05-10T01:11:52;0.13;;;0.13;;
44564;SDS011;30275;51.822;-0.326;2023-05-10T01:14:18;0.52;;;0.52;;
44564;SDS011;30275;51.822;-0.326;2023-05-10T01:16:45;1.30;;;0.50;;
44564;SDS011;30275;51.822;-0.326;2023-05-10T01:19:14;0.10;;;0.10;;
44564;SDS011;30275;51.822;-0.326;2023-05-10T01:27:41;0.10;;;0.10;;
44564;SDS011;30275;51.822;-0.326;2023-05-10T01:40:06;0.65;;;0.52;;
44564;SDS011;30275;51.822;-0.326;2023-05-10T01:42:14;0.20;;;0.20;;
44564;SDS011;30275;51.822;-0.326;2023-05-10T01:47:28;0.20;;;0.20;;
44564;SDS011;30275;51.822;-0.326;2023-05-10T01:50:03;0.20;;;0.20;;
44564;SDS011;30275;51.822;-0.326;2023-05-10T01:52:32;0.10;;;0.10;;
44564;SDS011;30275;51.822;-0.326;2023-05-10T01:55:02;0.10;;;0.10;;
44564;SDS011;30275;51.822;-0.326;2023-05-10T01:57:35;0.43;;;0.43;;
44564;SDS011;30275;51.822;-0.326;2023-05-10T02:00:04;0.28;;;0.28;;
44564;SDS011;30275;51.822;-0.326;2023-05-10T02:02:33;0.20;;;0.20;;
44564;SDS011;30275;51.822;-0.326;2023-05-10T02:05:03;0.20;;;0.20;;
44564;SDS011;30275;51.822;-0.326;2023-05-10T02:07:31;0.65;;;0.65;;
44564;SDS011;30275;51.822;-0.326;2023-05-10T02:10:00;1.60;;;0.82;;
44564;SDS011;30275;51.822;-0.326;2023-05-10T02:12:28;0.13;;;0.13;;
44564;SDS011;30275;51.822;-0.326;2023-05-10T02:14:55;0.10;;;0.10;;
44564;SDS011;30275;51.822;-0.326;2023-05-10T02:17:22;0.10;;;0.10;;
44564;SDS011;30275;51.822;-0.326;2023-05-10T02:19:49;1.55;;;1.45;;
44564;SDS011;30275;51.822;-0.326;2023-05-10T02:22:17;0.45;;;0.45;;
44564;SDS011;30275;51.822;-0.326;2023-05-10T02:24:44;0.25;;;0.25;;
44564;SDS011;30275;51.822;-0.326;2023-05-10T02:27:10;0.73;;;0.73;;
44564;SDS011;30275;51.822;-0.326;2023-05-10T02:29:37;1.02;;;0.90;;
44564;SDS011;30275;51.822;-0.326;2023-05-10T02:32:03;0.73;;;0.73;;
44564;SDS011;30275;51.822;-0.326;2023-05-10T02:34:30;0.20;;;0.20;;
44564;SDS011;30275;51.822;-0.326;2023-05-10T02:36:56;0.10;;;0.10;;
44564;SDS011;30275;51.822;-0.326;2023-05-10T02:39:22;0.45;;;0.45;;
44564;SDS011;30275;51.822;-0.326;2023-05-10T02:41:50;0.60;;;0.60;;
44564;SDS011;30275;51.822;-0.326;2023-05-10T02:44:20;0.10;;;0.10;;
44564;SDS011;30275;51.822;-0.326;2023-05-10T02:46:47;0.20;;;0.20;;
44564;SDS011;30275;51.822;-0.326;2023-05-10T02:49:13;0.45;;;0.45;;
44564;SDS011;30275;51.822;-0.326;2023-05-10T02:51:41;0.20;;;0.20;;
44564;SDS011;30275;51.822;-0.326;2023-05-10T02:54:12;0.82;;;0.82;;
44564;SDS011;30275;51.822;-0.326;2023-05-10T02:56:48;0.10;;;0.10;;
44564;SDS011;30275;51.822;-0.326;2023-05-10T02:59:16;3.50;;;0.93;;
44564;SDS011;30275;51.822;-0.326;2023-05-10T03:01:42;0.40;;;0.40;;
44564;SDS011;30275;51.822;-0.326;2023-05-10T03:04:07;1.20;;;1.20;;
44564;SDS011;30275;51.822;-0.326;2023-05-10T03:06:33;0.20;;;0.20;;
44564;SDS011;30275;51.822;-0.326;2023-05-10T03:08:59;0.10;;;0.10;;
44564;SDS011;30275;51.822;-0.326;2023-05-10T03:11:37;0.10;;;0.10;;
44564;SDS011;30275;51.822;-0.326;2023-05-10T03:14:30;0.28;;;0.28;;
44564;SDS011;30275;51.822;-0.326;2023-05-10T03:17:06;1.55;;;1.45;;
44564;SDS011;30275;51.822;-0.326;2023-05-10T03:22:16;0.20;;;0.20;;
44564;SDS011;30275;51.822;-0.326;2023-05-10T03:25:04;0.13;;;0.13;;
44564;SDS011;30275;51.822;-0.326;2023-05-10T03:27:31;0.10;;;0.10;;
44564;SDS011;30275;51.822;-0.326;2023-05-10T03:29:58;0.77;;;0.77;;
44564;SDS011;30275;51.822;-0.326;2023-05-10T03:32:26;0.20;;;0.20;;
44564;SDS011;30275;51.822;-0.326;2023-05-10T03:34:53;0.52;;;0.52;;
44564;SDS011;30275;51.822;-0.326;2023-05-10T03:37:19;0.45;;;0.45;;
44564;SDS011;30275;51.822;-0.326;2023-05-10T03:39:44;0.55;;;0.55;;
44564;SDS011;30275;51.822;-0.326;2023-05-10T03:42:10;0.25;;;0.25;;
44564;SDS011;30275;51.822;-0.326;2023-05-10T03:44:37;0.10;;;0.10;;
44564;SDS011;30275;51.822;-0.326;2023-05-10T03:47:03;0.35;;;0.35;;
44564;SDS011;30275;51.822;-0.326;2023-05-10T03:49:29;0.45;;;0.45;;
44564;SDS011;30275;51.822;-0.326;2023-05-10T03:51:54;1.65;;;0.57;;
44564;SDS011;30275;51.822;-0.326;2023-05-10T03:54:20;0.20;;;0.20;;
44564;SDS011;30275;51.822;-0.326;2023-05-10T03:56:46;0.20;;;0.20;;
44564;SDS011;30275;51.822;-0.326;2023-05-10T03:59:12;0.10;;;0.10;;
44564;SDS011;30275;51.822;-0.326;2023-05-10T04:01:38;0.20;;;0.20;;
44564;SDS011;30275;51.822;-0.326;2023-05-10T04:04:04;0.20;;;0.20;;
44564;SDS011;30275;51.822;-0.326;2023-05-10T04:06:29;0.10;;;0.10;;
44564;SDS011;30275;51.822;-0.326;2023-05-10T04:08:55;0.10;;;0.10;;
44564;SDS011;30275;51.822;-0.326;2023-05-10T04:11:24;0.15;;;0.15;;
44564;SDS011;30275;51.822;-0.326;2023-05-10T04:13:50;0.10;;;0.10;;
44564;SDS011;30275;51.822;-0.326;2023-05-10T04:16:16;0.75;;;0.75;;
44564;SDS011;30275;51.822;-0.326;2023-05-10T04:18:41;0.10;;;0.10;;
44564;SDS011;30275;51.822;-0.326;2023-05-10T04:21:13;0.20;;;0.20;;
44564;SDS011;30275;51.822;-0.326;2023-05-10T04:26:05;0.10;;;0.10;;
44564;SDS011;30275;51.822;-0.326;2023-05-10T04:28:31;0.20;;;0.20;;
44564;SDS011;30275;51.822;-0.326;2023-05-10T04:33:28;0.10;;;0.10;;
44564;SDS011;30275;51.822;-0.326;2023-05-10T04:35:53;7.10;;;2.85;;
44564;SDS011;30275;51.822;-0.326;2023-05-10T04:38:19;0.10;;;0.10;;
44564;SDS011;30275;51.822;-0.326;2023-05-10T04:40:45;0.65;;;0.65;;
44564;SDS011;30275;51.822;-0.326;2023-05-10T04:43:10;0.73;;;0.73;;
44564;SDS011;30275;51.822;-0.326;2023-05-10T04:45:36;0.20;;;0.20;;
44564;SDS011;30275;51.822;-0.326;2023-05-10T04:48:01;0.20;;;0.20;;
44564;SDS011;30275;51.822;-0.326;2023-05-10T04:50:27;0.10;;;0.10;;
44564;SDS011;30275;51.822;-0.326;2023-05-10T04:52:52;0.43;;;0.43;;
44564;SDS011;30275;51.822;-0.326;2023-05-10T04:55:18;1.65;;;1.55;;
44564;SDS011;30275;51.822;-0.326;2023-05-10T04:57:43;0.68;;;0.68;;
44564;SDS011;30275;51.822;-0.326;2023-05-10T05:00:10;0.40;;;0.40;;
44564;SDS011;30275;51.822;-0.326;2023-05-10T05:02:36;0.20;;;0.20;;
44564;SDS011;30275;51.822;-0.326;2023-05-10T05:05:01;0.20;;;0.20;;
44564;SDS011;30275;51.822;-0.326;2023-05-10T05:07:27;0.60;;;0.60;;
44564;SDS011;30275;51.822;-0.326;2023-05-10T05:09:52;0.28;;;0.28;;
44564;SDS011;30275;51.822;-0.326;2023-05-10T05:12:18;0.17;;;0.17;;
44564;SDS011;30275;51.822;-0.326;2023-05-10T05:14:44;0.20;;;0.20;;
44564;SDS011;30275;51.822;-0.326;2023-05-10T05:17:09;0.52;;;0.52;;
44564;SDS011;30275;51.822;-0.326;2023-05-10T05:19:35;0.30;;;0.30;;
44564;SDS011;30275;51.822;-0.326;2023-05-10T05:22:00;0.30;;;0.30;;
44564;SDS011;30275;51.822;-0.326;2023-05-10T05:37:35;3.58;;;2.15;;
44564;SDS011;30275;51.822;-0.326;2023-05-10T05:40:01;0.57;;;0.57;;
44564;SDS011;30275;51.822;-0.326;2023-05-10T05:42:26;0.93;;;0.93;;
44564;SDS011;30275;51.822;-0.326;2023-05-10T05:44:52;0.35;;;0.35;;
44564;SDS011;30275;51.822;-0.326;2023-05-10T05:47:18;0.35;;;0.35;;
44564;SDS011;30275;51.822;-0.326;2023-05-10T05:49:46;0.10;;;0.10;;
44564;SDS011;30275;51.822;-0.326;2023-05-10T05:52:12;0.80;;;0.80;;
44564;SDS011;30275;51.822;-0.326;2023-05-10T05:54:38;0.15;;;0.15;;
44564;SDS011;30275;51.822;-0.326;2023-05-10T05:57:04;1.23;;;1.23;;
44564;SDS011;30275;51.822;-0.326;2023-05-10T05:59:30;0.10;;;0.10;;
44564;SDS011;30275;51.822;-0.326;2023-05-10T06:01:56;0.10;;;0.10;;
44564;SDS011;30275;51.822;-0.326;2023-05-10T06:04:25;8.57;;;3.95;;
44564;SDS011;30275;51.822;-0.326;2023-05-10T06:06:51;0.20;;;0.20;;
44564;SDS011;30275;51.822;-0.326;2023-05-10T06:09:17;0.10;;;0.10;;
44564;SDS011;30275;51.822;-0.326;2023-05-10T06:11:42;0.55;;;0.55;;
44564;SDS011;30275;51.822;-0.326;2023-05-10T06:14:08;0.40;;;0.40;;
44564;SDS011;30275;51.822;-0.326;2023-05-10T06:16:34;0.10;;;0.10;;
44564;SDS011;30275;51.822;-0.326;2023-05-10T06:19:00;0.10;;;0.10;;
44564;SDS011;30275;51.822;-0.326;2023-05-10T06:21:27;0.90;;;0.90;;
44564;SDS011;30275;51.822;-0.326;2023-05-10T06:23:53;0.10;;;0.10;;
44564;SDS011;30275;51.822;-0.326;2023-05-10T06:26:19;0.10;;;0.10;;
44564;SDS011;30275;51.822;-0.326;2023-05-10T06:28:45;0.10;;;0.10;;
44564;SDS011;30275;51.822;-0.326;2023-05-10T06:31:11;0.40;;;0.40;;
44564;SDS011;30275;51.822;-0.326;2023-05-10T06:33:37;0.10;;;0.10;;
44564;SDS011;30275;51.822;-0.326;2023-05-10T06:36:03;0.10;;;0.10;;
44564;SDS011;30275;51.822;-0.326;2023-05-10T06:38:29;0.20;;;0.20;;
44564;SDS011;30275;51.822;-0.326;2023-05-10T06:40:54;0.35;;;0.35;;
44564;SDS011;30275;51.822;-0.326;2023-05-10T06:43:20;0.25;;;0.25;;
44564;SDS011;30275;51.822;-0.326;2023-05-10T06:45:46;0.20;;;0.20;;
44564;SDS011;30275;51.822;-0.326;2023-05-10T06:48:13;0.10;;;0.10;;
44564;SDS011;30275;51.822;-0.326;2023-05-10T06:50:38;2.72;;;2.05;;
44564;SDS011;30275;51.822;-0.326;2023-05-10T06:53:04;0.17;;;0.17;;
44564;SDS011;30275;51.822;-0.326;2023-05-10T06:55:29;0.10;;;0.10;;
44564;SDS011;30275;51.822;-0.326;2023-05-10T06:57:55;0.17;;;0.17;;
44564;SDS011;30275;51.822;-0.326;2023-05-10T07:00:20;0.15;;;0.15;;
44564;SDS011;30275;51.822;-0.326;2023-05-10T07:02:46;0.10;;;0.10;;
44564;SDS011;30275;51.822;-0.326;2023-05-10T07:05:12;0.10;;;0.10;;
44564;SDS011;30275;51.822;-0.326;2023-05-10T07:07:38;0.32;;;0.32;;
44564;SDS011;30275;51.822;-0.326;2023-05-10T07:10:04;0.10;;;0.10;;
44564;SDS011;30275;51.822;-0.326;2023-05-10T07:12:30;0.95;;;0.95;;
44564;SDS011;30275;51.822;-0.326;2023-05-10T07:14:56;0.22;;;0.22;;
44564;SDS011;30275;51.822;-0.326;2023-05-10T07:17:21;0.25;;;0.25;;
44564;SDS011;30275;51.822;-0.326;2023-05-10T07:19:47;0.75;;;0.73;;
44564;SDS011;30275;51.822;-0.326;2023-05-10T07:22:13;0.85;;;0.85;;
44564;SDS011;30275;51.822;-0.326;2023-05-10T07:24:39;0.88;;;0.80;;
44564;SDS011;30275;51.822;-0.326;2023-05-10T07:27:05;0.52;;;0.52;;
44564;SDS011;30275;51.822;-0.326;2023-05-10T07:29:31;0.15;;;0.15;;
44564;SDS011;30275;51.822;-0.326;2023-05-10T07:31:58;0.73;;;0.73;;
44564;SDS011;30275;51.822;-0.326;2023-05-10T07:34:23;0.10;;;0.10;;
44564;SDS011;30275;51.822;-0.326;2023-05-10T07:36:49;0.10;;;0.10;;
44564;SDS011;30275;51.822;-0.326;2023-05-10T07:39:14;1.58;;;1.48;;
44564;SDS011;30275;51.822;-0.326;2023-05-10T07:41:41;0.32;;;0.32;;
44564;SDS011;30275;51.822;-0.326;2023-05-10T07:44:07;0.45;;;0.45;;
44564;SDS011;30275;51.822;-0.326;2023-05-10T07:46:32;0.10;;;0.10;;
44564;SDS011;30275;51.822;-0.326;2023-05-10T07:48:58;0.10;;;0.10;;
44564;SDS011;30275;51.822;-0.326;2023-05-10T07:51:23;1.15;;;1.05;;
44564;SDS011;30275;51.822;-0.326;2023-05-10T07:53:49;0.10;;;0.10;;
44564;SDS011;30275;51.822;-0.326;2023-05-10T07:58:46;0.80;;;0.65;;
44564;SDS011;30275;51.822;-0.326;2023-05-10T08:01:12;0.93;;;0.68;;
44564;SDS011;30275;51.822;-0.326;2023-05-10T08:03:37;3.90;;;1.60;;
44564;SDS011;30275;51.822;-0.326;2023-05-10T08:06:03;0.00;;;0.00;;
44564;SDS011;30275;51.822;-0.326;2023-05-10T08:08:29;0.10;;;0.10;;
44564;SDS011;30275;51.822;-0.326;2023-05-10T08:10:54;0.10;;;0.10;;
44564;SDS011;30275;51.822;-0.326;2023-05-10T08:13:20;0.03;;;0.03;;
44564;SDS011;30275;51.822;-0.326;2023-05-10T08:15:46;0.00;;;0.00;;
44564;SDS011;30275;51.822;-0.326;2023-05-10T08:18:12;0.00;;;0.00;;
44564;SDS011;30275;51.822;-0.326;2023-05-10T08:20:37;0.10;;;0.10;;
44564;SDS011;30275;51.822;-0.326;2023-05-10T08:23:03;1.25;;;0.45;;
44564;SDS011;30275;51.822;-0.326;2023-05-10T08:25:28;0.30;;;0.30;;
44564;SDS011;30275;51.822;-0.326;2023-05-10T08:27:54;0.82;;;0.57;;
44564;SDS011;30275;51.822;-0.326;2023-05-10T08:30:20;1.52;;;1.45;;
44564;SDS011;30275;51.822;-0.326;2023-05-10T08:32:45;0.10;;;0.10;;
44564;SDS011;30275;51.822;-0.326;2023-05-10T08:35:11;2.25;;;0.35;;
44564;SDS011;30275;51.822;-0.326;2023-05-10T08:37:36;0.30;;;0.30;;
44564;SDS011;30275;51.822;-0.326;2023-05-10T08:40:02;0.22;;;0.22;;
44564;SDS011;30275;51.822;-0.326;2023-05-10T08:42:28;0.08;;;0.08;;
44564;SDS011;30275;51.822;-0.326;2023-05-10T08:44:57;0.10;;;0.10;;
44564;SDS011;30275;51.822;-0.326;2023-05-10T08:47:24;0.40;;;0.40;;
44564;SDS011;30275;51.822;-0.326;2023-05-10T08:49:50;0.10;;;0.10;;
44564;SDS011;30275;51.822;-0.326;2023-05-10T08:52:17;0.30;;;0.30;;
44564;SDS011;30275;51.822;-0.326;2023-05-10T08:54:43;0.00;;;0.00;;
44564;SDS011;30275;51.822;-0.326;2023-05-10T08:57:09;0.22;;;0.22;;
44564;SDS011;30275;51.822;-0.326;2023-05-10T08:59:35;0.10;;;0.10;;
44564;SDS011;30275;51.822;-0.326;2023-05-10T09:02:04;0.13;;;0.13;;
44564;SDS011;30275;51.822;-0.326;2023-05-10T09:04:29;0.10;;;0.10;;
44564;SDS011;30275;51.822;-0.326;2023-05-10T09:06:56;1.88;;;1.50;;
44564;SDS011;30275;51.822;-0.326;2023-05-10T09:09:22;0.73;;;0.73;;
44564;SDS011;30275;51.822;-0.326;2023-05-10T09:11:50;0.20;;;0.20;;
44564;SDS011;30275;51.822;-0.326;2023-05-10T09:14:17;0.20;;;0.20;;
44564;SDS011;30275;51.822;-0.326;2023-05-10T09:16:45;0.10;;;0.10;;
44564;SDS011;30275;51.822;-0.326;2023-05-10T09:19:11;0.30;;;0.30;;
44564;SDS011;30275;51.822;-0.326;2023-05-10T09:21:37;0.22;;;0.22;;
44564;SDS011;30275;51.822;-0.326;2023-05-10T09:24:06;0.10;;;0.10;;
44564;SDS011;30275;51.822;-0.326;2023-05-10T09:26:32;0.43;;;0.43;;
44564;SDS011;30275;51.822;-0.326;2023-05-10T09:28:58;0.65;;;0.65;;
44564;SDS011;30275;51.822;-0.326;2023-05-10T09:31:25;0.08;;;0.08;;
44564;SDS011;30275;51.822;-0.326;2023-05-10T09:34:20;0.20;;;0.20;;
44564;SDS011;30275;51.822;-0.326;2023-05-10T09:36:55;1.05;;;0.95;;
44564;SDS011;30275;51.822;-0.326;2023-05-10T09:39:34;0.32;;;0.32;;
44564;SDS011;30275;51.822;-0.326;2023-05-10T09:42:04;0.30;;;0.30;;
44564;SDS011;30275;51.822;-0.326;2023-05-10T09:44:31;0.10;;;0.10;;
44564;SDS011;30275;51.822;-0.326;2023-05-10T09:46:58;0.10;;;0.10;;
44564;SDS011;30275;51.822;-0.326;2023-05-10T09:49:24;0.40;;;0.40;;
44564;SDS011;30275;51.822;-0.326;2023-05-10T09:52:05;0.52;;;0.52;;
44564;SDS011;30275;51.822;-0.326;2023-05-10T09:54:32;0.38;;;0.38;;
44564;SDS011;30275;51.822;-0.326;2023-05-10T09:56:59;0.20;;;0.20;;
44564;SDS011;30275;51.822;-0.326;2023-05-10T09:59:26;0.30;;;0.30;;
44564;SDS011;30275;51.822;-0.326;2023-05-10T10:01:53;0.10;;;0.10;;
44564;SDS011;30275;51.822;-0.326;2023-05-10T10:04:21;0.10;;;0.10;;
44564;SDS011;30275;51.822;-0.326;2023-05-10T10:06:47;1.35;;;1.08;;
44564;SDS011;30275;51.822;-0.326;2023-05-10T10:09:29;13.45;;;0.63;;
44564;SDS011;30275;51.822;-0.326;2023-05-10T10:11:55;0.10;;;0.10;;
44564;SDS011;30275;51.822;-0.326;2023-05-10T10:14:22;0.75;;;0.75;;
44564;SDS011;30275;51.822;-0.326;2023-05-10T10:16:51;0.10;;;0.10;;
44564;SDS011;30275;51.822;-0.326;2023-05-10T10:19:18;0.22;;;0.22;;
44564;SDS011;30275;51.822;-0.326;2023-05-10T10:21:45;0.10;;;0.10;;
44564;SDS011;30275;51.822;-0.326;2023-05-10T10:24:11;0.10;;;0.10;;
44564;SDS011;30275;51.822;-0.326;2023-05-10T10:26:37;0.20;;;0.20;;
44564;SDS011;30275;51.822;-0.326;2023-05-10T10:34:32;0.20;;;0.20;;
44564;SDS011;30275;51.822;-0.326;2023-05-10T10:36:59;0.30;;;0.30;;
44564;SDS011;30275;51.822;-0.326;2023-05-10T10:39:29;0.20;;;0.20;;
44564;SDS011;30275;51.822;-0.326;2023-05-10T10:41:56;0.52;;;0.52;;
44564;SDS011;30275;51.822;-0.326;2023-05-10T10:49:24;0.47;;;0.40;;
44564;SDS011;30275;51.822;-0.326;2023-05-10T10:55:25;1.05;;;0.60;;
44564;SDS011;30275;51.822;-0.326;2023-05-10T10:57:51;0.10;;;0.10;;
44564;SDS011;30275;51.822;-0.326;2023-05-10T11:00:32;0.00;;;0.00;;
44564;SDS011;30275;51.822;-0.326;2023-05-10T11:03:08;0.38;;;0.38;;
44564;SDS011;30275;51.822;-0.326;2023-05-10T11:05:48;0.38;;;0.30;;
44564;SDS011;30275;51.822;-0.326;2023-05-10T11:10:52;0.63;;;0.63;;
44564;SDS011;30275;51.822;-0.326;2023-05-10T11:18:35;4.18;;;2.40;;
44564;SDS011;30275;51.822;-0.326;2023-05-10T11:21:02;5.18;;;3.20;;
44564;SDS011;30275;51.822;-0.326;2023-05-10T11:23:30;4.65;;;2.60;;
44564;SDS011;30275;51.822;-0.326;2023-05-10T11:25:56;3.17;;;1.95;;
44564;SDS011;30275;51.822;-0.326;2023-05-10T11:28:22;3.40;;;2.47;;
44564;SDS011;30275;51.822;-0.326;2023-05-10T11:30:48;5.00;;;2.30;;
44564;SDS011;30275;51.822;-0.326;2023-05-10T11:33:17;4.57;;;2.22;;
44564;SDS011;30275;51.822;-0.326;2023-05-10T11:35:44;3.53;;;2.20;;
44564;SDS011;30275;51.822;-0.326;2023-05-10T11:38:11;6.60;;;2.67;;
44564;SDS011;30275;51.822;-0.326;2023-05-10T11:40:38;5.35;;;2.30;;
44564;SDS011;30275;51.822;-0.326;2023-05-10T11:43:04;6.10;;;2.60;;
44564;SDS011;30275;51.822;-0.326;2023-05-10T11:45:33;3.85;;;2.30;;
44564;SDS011;30275;51.822;-0.326;2023-05-10T11:48:00;3.97;;;1.77;;
44564;SDS011;30275;51.822;-0.326;2023-05-10T11:50:26;4.72;;;2.40;;
44564;SDS011;30275;51.822;-0.326;2023-05-10T11:52:53;3.22;;;1.70;;
44564;SDS011;30275;51.822;-0.326;2023-05-10T11:55:23;3.30;;;2.00;;
44564;SDS011;30275;51.822;-0.326;2023-05-10T11:57:52;5.93;;;2.35;;
44564;SDS011;30275;51.822;-0.326;2023-05-10T12:00:19;4.70;;;2.03;;
44564;SDS011;30275;51.822;-0.326;2023-05-10T12:02:45;5.30;;;2.10;;
44564;SDS011;30275;51.822;-0.326;2023-05-10T12:05:10;4.10;;;1.88;;
44564;SDS011;30275;51.822;-0.326;2023-05-10T12:07:37;4.50;;;2.33;;
44564;SDS011;30275;51.822;-0.326;2023-05-10T12:12:51;3.58;;;2.40;;
44564;SDS011;30275;51.822;-0.326;2023-05-10T12:15:21;3.35;;;2.08;;
44564;SDS011;30275;51.822;-0.326;2023-05-10T12:17:48;5.63;;;2.65;;
44564;SDS011;30275;51.822;-0.326;2023-05-10T12:22:40;4.65;;;2.42;;
44564;SDS011;30275;51.822;-0.326;2023-05-10T12:25:08;4.28;;;2.20;;
44564;SDS011;30275;51.822;-0.326;2023-05-10T12:27:35;6.75;;;3.03;;
44564;SDS011;30275;51.822;-0.326;2023-05-10T12:30:01;9.85;;;3.17;;
44564;SDS011;30275;51.822;-0.326;2023-05-10T12:32:43;7.43;;;2.78;;
44564;SDS011;30275;51.822;-0.326;2023-05-10T12:35:09;4.82;;;2.90;;
44564;SDS011;30275;51.822;-0.326;2023-05-10T12:37:34;8.55;;;2.50;;
44564;SDS011;30275;51.822;-0.326;2023-05-10T12:40:05;6.13;;;2.50;;
44564;SDS011;30275;51.822;-0.326;2023-05-10T12:42:34;8.68;;;3.10;;
44564;SDS011;30275;51.822;-0.326;2023-05-10T12:45:03;4.75;;;2.80;;
44564;SDS011;30275;51.822;-0.326;2023-05-10T12:47:30;8.82;;;2.85;;
44564;SDS011;30275;51.822;-0.326;2023-05-10T12:49:56;9.05;;;2.88;;
44564;SDS011;30275;51.822;-0.326;2023-05-10T12:52:22;9.05;;;2.70;;
44564;SDS011;30275;51.822;-0.326;2023-05-10T12:54:48;8.55;;;3.42;;
44564;SDS011;30275;51.822;-0.326;2023-05-10T12:57:14;6.55;;;2.70;;
44564;SDS011;30275;51.822;-0.326;2023-05-10T12:59:40;9.10;;;3.40;;
44564;SDS011;30275;51.822;-0.326;2023-05-10T13:02:06;6.45;;;3.30;;
44564;SDS011;30275;51.822;-0.326;2023-05-10T13:04:32;8.02;;;3.33;;
44564;SDS011;30275;51.822;-0.326;2023-05-10T13:06:57;11.20;;;3.67;;
44564;SDS011;30275;51.822;-0.326;2023-05-10T13:09:26;8.80;;;3.97;;
44564;SDS011;30275;51.822;-0.326;2023-05-10T13:14:21;6.38;;;3.28;;
44564;SDS011;30275;51.822;-0.326;2023-05-10T13:16:47;9.63;;;3.80;;
44564;SDS011;30275;51.822;-0.326;2023-05-10T13:19:16;9.35;;;4.63;;
44564;SDS011;30275;51.822;-0.326;2023-05-10T13:21:42;8.73;;;4.28;;
44564;SDS011;30275;51.822;-0.326;2023-05-10T13:24:11;7.75;;;3.88;;
44564;SDS011;30275;51.822;-0.326;2023-05-10T13:26:41;9.52;;;3.92;;
44564;SDS011;30275;51.822;-0.326;2023-05-10T13:29:07;9.30;;;4.15;;
44564;SDS011;30275;51.822;-0.326;2023-05-10T13:31:34;7.68;;;3.80;;
44564;SDS011;30275;51.822;-0.326;2023-05-10T13:34:00;7.65;;;3.78;;
44564;SDS011;30275;51.822;-0.326;2023-05-10T13:36:26;6.93;;;2.90;;
44564;SDS011;30275;51.822;-0.326;2023-05-10T13:38:52;4.70;;;2.78;;
44564;SDS011;30275;51.822;-0.326;2023-05-10T13:41:17;8.30;;;2.72;;
44564;SDS011;30275;51.822;-0.326;2023-05-10T13:43:43;6.85;;;2.92;;
44564;SDS011;30275;51.822;-0.326;2023-05-10T13:46:08;7.65;;;3.17;;
44564;SDS011;30275;51.822;-0.326;2023-05-10T13:48:34;5.35;;;2.70;;
44564;SDS011;30275;51.822;-0.326;2023-05-10T13:51:01;5.65;;;2.33;;
44564;SDS011;30275;51.822;-0.326;2023-05-10T13:53:27;4.95;;;2.40;;
44564;SDS011;30275;51.822;-0.326;2023-05-10T13:55:53;4.93;;;2.42;;
44564;SDS011;30275;51.822;-0.326;2023-05-10T13:58:18;6.68;;;2.60;;
44564;SDS011;30275;51.822;-0.326;2023-05-10T14:00:44;6.00;;;3.15;;
44564;SDS011;30275;51.822;-0.326;2023-05-10T14:03:09;4.65;;;3.05;;
44564;SDS011;30275;51.822;-0.326;2023-05-10T14:05:35;6.28;;;3.50;;
44564;SDS011;30275;51.822;-0.326;2023-05-10T14:08:01;6.07;;;3.03;;
44564;SDS011;30275;51.822;-0.326;2023-05-10T14:10:28;7.00;;;3.80;;
44564;SDS011;30275;51.822;-0.326;2023-05-10T14:12:55;6.70;;;2.85;;
44564;SDS011;30275;51.822;-0.326;2023-05-10T14:15:20;6.97;;;3.15;;
44564;SDS011;30275;51.822;-0.326;2023-05-10T14:29:30;4.63;;;1.77;;
44564;SDS011;30275;51.822;-0.326;2023-05-10T14:31:55;4.82;;;2.15;;
44564;SDS011;30275;51.822;-0.326;2023-05-10T14:34:21;4.32;;;2.15;;
44564;SDS011;30275;51.822;-0.326;2023-05-10T14:36:46;3.60;;;2.65;;
44564;SDS011;30275;51.822;-0.326;2023-05-10T14:39:12;5.93;;;2.25;;
44564;SDS011;30275;51.822;-0.326;2023-05-10T14:41:38;4.88;;;2.42;;
44564;SDS011;30275;51.822;-0.326;2023-05-10T14:44:06;4.57;;;2.45;;
44564;SDS011;30275;51.822;-0.326;2023-05-10T14:46:31;2.95;;;2.10;;
44564;SDS011;30275;51.822;-0.326;2023-05-10T14:48:57;9.02;;;2.88;;
44564;SDS011;30275;51.822;-0.326;2023-05-10T14:51:23;3.63;;;2.38;;
44564;SDS011;30275;51.822;-0.326;2023-05-10T14:53:48;4.43;;;2.17;;
44564;SDS011;30275;51.822;-0.326;2023-05-10T14:56:14;5.85;;;2.95;;
44564;SDS011;30275;51.822;-0.326;2023-05-10T14:58:40;6.68;;;2.75;;
44564;SDS011;30275;51.822;-0.326;2023-05-10T15:01:05;7.72;;;2.78;;
44564;SDS011;30275;51.822;-0.326;2023-05-10T15:03:31;4.50;;;2.40;;
44564;SDS011;30275;51.822;-0.326;2023-05-10T15:05:57;4.95;;;2.80;;
44564;SDS011;30275;51.822;-0.326;2023-05-10T15:08:23;3.92;;;2.55;;
44564;SDS011;30275;51.822;-0.326;2023-05-10T15:10:49;4.72;;;2.63;;
44564;SDS011;30275;51.822;-0.326;2023-05-10T15:13:15;4.00;;;2.50;;
44564;SDS011;30275;51.822;-0.326;2023-05-10T15:15:41;3.45;;;2.35;;
44564;SDS011;30275;51.822;-0.326;2023-05-10T15:18:07;6.20;;;2.15;;
44564;SDS011;30275;51.822;-0.326;2023-05-10T15:20:33;3.97;;;2.10;;
44564;SDS011;30275;51.822;-0.326;2023-05-10T15:22:59;4.03;;;1.80;;
44564;SDS011;30275;51.822;-0.326;2023-05-10T15:25:25;2.70;;;1.80;;
44564;SDS011;30275;51.822;-0.326;2023-05-10T15:27:52;2.42;;;1.85;;
44564;SDS011;30275;51.822;-0.326;2023-05-10T15:30:18;4.68;;;2.00;;
44564;SDS011;30275;51.822;-0.326;2023-05-10T15:32:43;2.85;;;1.65;;
44564;SDS011;30275;51.822;-0.326;2023-05-10T15:35:09;4.05;;;1.58;;
44564;SDS011;30275;51.822;-0.326;2023-05-10T15:37:35;3.65;;;1.55;;
44564;SDS011;30275;51.822;-0.326;2023-05-10T15:40:01;5.72;;;1.65;;
44564;SDS011;30275;51.822;-0.326;2023-05-10T15:42:28;6.07;;;1.70;;
44564;SDS011;30275;51.822;-0.326;2023-05-10T15:44:55;3.28;;;1.45;;
44564;SDS011;30275;51.822;-0.326;2023-05-10T15:47:21;2.75;;;1.48;;
44564;SDS011;30275;51.822;-0.326;2023-05-10T15:49:46;3.90;;;1.50;;
44564;SDS011;30275;51.822;-0.326;2023-05-10T15:52:12;3.67;;;1.60;;
44564;SDS011;30275;51.822;-0.326;2023-05-10T15:54:38;4.93;;;1.77;;